Time;durP1;ratioP1;P1;durP2;ratioP2;P2;SDS_P1;SDS_P2;PMS_P1;PMS_P2;Temp;Humidity;BMP_temperature;BMP_pressure;BME280_temperature;BME280_humidity;BME280_pressure;Samples;Min_cycle;Max_cycle;Signal;HPM_P1;HPM_P2
2021/10/06 00:00:52;;;;;;;36.33;4.95;;;;;;;;;;5064950;28;20084;-36
2021/10/06 00:03:19;;;;;;;50.13;4.45;;;;;;;;;;5066577;28;20579;-40
2021/10/06 00:05:46;;;;;;;40.65;3.75;;;;;;;;;;5066353;28;20052;-35
2021/10/06 00:08:13;;;;;;;28.98;3.90;;;;;;;;;;5066411;28;20115;-35
2021/10/06 00:10:40;;;;;;;45.67;5.20;;;;;;;;;;5066541;28;20029;-37
2021/10/06 00:13:07;;;;;;;39.22;4.40;;;;;;;;;;5064625;28;20024;-37
2021/10/06 00:15:34;;;;;;;43.90;4.70;;;;;;;;;;5066184;28;20033;-36
2021/10/06 00:18:01;;;;;;;33.97;3.92;;;;;;;;;;5065227;28;20028;-37
2021/10/06 00:20:28;;;;;;;40.35;4.38;;;;;;;;;;5067057;28;20035;-36
2021/10/06 00:22:55;;;;;;;41.47;3.50;;;;;;;;;;5065226;28;20017;-36
2021/10/06 00:25:22;;;;;;;40.03;4.95;;;;;;;;;;5066377;28;20127;-36
2021/10/06 00:27:49;;;;;;;34.80;5.00;;;;;;;;;;5066985;28;20021;-35
2021/10/06 00:30:17;;;;;;;53.70;7.35;;;;;;;;;;5066998;28;20037;-39
2021/10/06 00:32:44;;;;;;;69.25;9.77;;;;;;;;;;5066316;28;20020;-35
2021/10/06 00:35:11;;;;;;;80.15;11.60;;;;;;;;;;5066186;28;20021;-37
2021/10/06 00:37:38;;;;;;;96.70;11.95;;;;;;;;;;5066057;28;20051;-39
2021/10/06 00:40:06;;;;;;;98.63;13.77;;;;;;;;;;5066708;28;20139;-37
2021/10/06 00:42:33;;;;;;;91.30;14.30;;;;;;;;;;5047188;28;20032;-37
2021/10/06 00:45:00;;;;;;;85.78;14.38;;;;;;;;;;5033075;28;20083;-37
2021/10/06 00:47:27;;;;;;;79.07;13.82;;;;;;;;;;5052145;28;20056;-35
2021/10/06 00:49:54;;;;;;;104.65;14.02;;;;;;;;;;5053014;28;20099;-35
2021/10/06 00:52:21;;;;;;;96.07;14.80;;;;;;;;;;5051276;28;20052;-38
2021/10/06 00:54:48;;;;;;;82.07;13.38;;;;;;;;;;5053077;28;20017;-35
2021/10/06 00:57:15;;;;;;;99.78;14.52;;;;;;;;;;5051036;28;20025;-36
2021/10/06 00:59:42;;;;;;;86.90;15.38;;;;;;;;;;5053296;28;20040;-37
2021/10/06 01:02:09;;;;;;;82.68;14.00;;;;;;;;;;5053539;28;20025;-36
2021/10/06 01:04:36;;;;;;;78.88;13.93;;;;;;;;;;5052225;28;20028;-36
2021/10/06 01:07:03;;;;;;;70.22;13.30;;;;;;;;;;5052640;28;20024;-38
2021/10/06 01:09:31;;;;;;;81.03;12.65;;;;;;;;;;5051855;28;20029;-35
2021/10/06 01:11:59;;;;;;;89.65;12.48;;;;;;;;;;5034790;28;20546;-35
2021/10/06 01:14:27;;;;;;;76.05;12.20;;;;;;;;;;5052395;28;20501;-36
2021/10/06 01:16:54;;;;;;;63.97;10.88;;;;;;;;;;5051993;28;20142;-36
2021/10/06 01:19:25;;;;;;;67.88;10.95;;;;;;;;;;5045863;28;20107;-38
2021/10/06 01:21:53;;;;;;;53.00;9.75;;;;;;;;;;5052172;28;20381;-38
2021/10/06 01:24:20;;;;;;;56.53;9.65;;;;;;;;;;5051561;28;20094;-37
2021/10/06 01:26:47;;;;;;;49.97;8.77;;;;;;;;;;5052750;28;20048;-37
2021/10/06 01:29:17;;;;;;;52.67;9.32;;;;;;;;;;5052259;28;20036;-39
2021/10/06 01:31:45;;;;;;;52.08;8.90;;;;;;;;;;5052008;28;20064;-41
2021/10/06 01:34:12;;;;;;;53.00;8.80;;;;;;;;;;5052350;28;20026;-42
2021/10/06 01:36:40;;;;;;;50.53;9.00;;;;;;;;;;5051476;28;20024;-38
2021/10/06 01:39:07;;;;;;;50.45;8.32;;;;;;;;;;5049331;28;20021;-38
2021/10/06 01:41:35;;;;;;;51.45;8.35;;;;;;;;;;5051874;28;20068;-42
2021/10/06 01:44:03;;;;;;;50.78;8.77;;;;;;;;;;5034344;28;20048;-39
2021/10/06 01:46:30;;;;;;;39.17;7.63;;;;;;;;;;5050482;28;20033;-44
2021/10/06 01:48:57;;;;;;;44.53;8.50;;;;;;;;;;5050847;28;20025;-40
2021/10/06 01:51:25;;;;;;;35.60;7.25;;;;;;;;;;5051212;28;20064;-41
2021/10/06 01:53:52;;;;;;;42.70;7.53;;;;;;;;;;5050438;28;20045;-42
2021/10/06 01:56:19;;;;;;;43.97;7.80;;;;;;;;;;5050853;28;20481;-41
2021/10/06 01:58:47;;;;;;;34.05;7.32;;;;;;;;;;5049976;28;20494;-38
2021/10/06 02:01:14;;;;;;;45.13;7.43;;;;;;;;;;5051087;28;20009;-44
2021/10/06 02:03:41;;;;;;;47.50;6.85;;;;;;;;;;5050439;28;20048;-38
2021/10/06 02:06:08;;;;;;;34.08;6.32;;;;;;;;;;5050848;28;20024;-42
2021/10/06 02:08:35;;;;;;;30.67;6.50;;;;;;;;;;5033133;28;20033;-41
2021/10/06 02:11:02;;;;;;;38.33;6.65;;;;;;;;;;5051069;28;20067;-41
2021/10/06 02:13:29;;;;;;;42.20;7.35;;;;;;;;;;5052092;28;20013;-40
2021/10/06 02:15:57;;;;;;;31.23;6.20;;;;;;;;;;5051752;28;20017;-43
2021/10/06 02:18:24;;;;;;;27.98;5.78;;;;;;;;;;5051080;28;20388;-38
2021/10/06 02:20:51;;;;;;;42.47;6.05;;;;;;;;;;5045657;28;20422;-40
2021/10/06 02:23:18;;;;;;;36.95;6.63;;;;;;;;;;5051866;28;20025;-39
2021/10/06 02:25:45;;;;;;;28.13;5.78;;;;;;;;;;5051847;28;20048;-41
2021/10/06 02:28:12;;;;;;;29.67;5.28;;;;;;;;;;5051136;28;20044;-39
2021/10/06 02:30:39;;;;;;;31.35;6.05;;;;;;;;;;5051905;28;20057;-37
2021/10/06 02:33:06;;;;;;;25.92;5.63;;;;;;;;;;5051518;28;20024;-39
2021/10/06 02:35:33;;;;;;;27.50;5.03;;;;;;;;;;5051413;28;20025;-42
2021/10/06 02:38:00;;;;;;;22.55;4.85;;;;;;;;;;5051403;28;20097;-39
2021/10/06 02:40:27;;;;;;;31.25;6.13;;;;;;;;;;5051982;28;20029;-38
2021/10/06 02:42:54;;;;;;;21.13;4.47;;;;;;;;;;5051836;28;20095;-39
2021/10/06 02:45:21;;;;;;;28.00;5.25;;;;;;;;;;5051958;28;20035;-38
2021/10/06 02:47:49;;;;;;;24.70;5.15;;;;;;;;;;5051076;28;20027;-40
2021/10/06 02:50:21;;;;;;;24.33;5.22;;;;;;;;;;5051279;28;20033;-41
2021/10/06 02:52:48;;;;;;;23.33;5.00;;;;;;;;;;5051427;28;20518;-43
2021/10/06 02:55:15;;;;;;;34.65;4.70;;;;;;;;;;5052119;28;20025;-39
2021/10/06 02:57:42;;;;;;;23.58;5.00;;;;;;;;;;5051030;28;20021;-41
2021/10/06 03:00:10;;;;;;;19.23;4.38;;;;;;;;;;5051018;28;20477;-38
2021/10/06 03:02:39;;;;;;;21.85;4.78;;;;;;;;;;5051791;28;20017;-38
2021/10/06 03:05:07;;;;;;;25.67;4.30;;;;;;;;;;5050986;28;20051;-40
2021/10/06 03:07:34;;;;;;;22.77;4.65;;;;;;;;;;5050623;28;20025;-40
2021/10/06 03:10:01;;;;;;;18.90;4.72;;;;;;;;;;5051223;28;20388;-37
2021/10/06 03:12:28;;;;;;;19.45;4.38;;;;;;;;;;5051607;28;20048;-40
2021/10/06 03:14:55;;;;;;;17.10;3.90;;;;;;;;;;5051112;28;20022;-39
2021/10/06 03:17:22;;;;;;;19.88;4.25;;;;;;;;;;5051365;28;20017;-39
2021/10/06 03:19:49;;;;;;;17.80;4.05;;;;;;;;;;5051300;28;20028;-39
2021/10/06 03:22:16;;;;;;;14.82;3.80;;;;;;;;;;5026107;28;20427;-39
2021/10/06 03:24:43;;;;;;;16.77;3.50;;;;;;;;;;5049538;28;20506;-37
2021/10/06 03:27:11;;;;;;;29.60;4.50;;;;;;;;;;5051073;28;20029;-38
2021/10/06 03:29:38;;;;;;;31.23;4.93;;;;;;;;;;5049458;28;20118;-37
2021/10/06 03:32:05;;;;;;;16.67;3.63;;;;;;;;;;5051064;28;20025;-39
2021/10/06 03:34:32;;;;;;;20.80;3.50;;;;;;;;;;5050383;28;20013;-38
2021/10/06 03:36:59;;;;;;;22.60;4.03;;;;;;;;;;5050769;28;20029;-40
2021/10/06 03:39:26;;;;;;;15.77;3.35;;;;;;;;;;5049705;28;20392;-39
2021/10/06 03:41:54;;;;;;;16.17;3.28;;;;;;;;;;5050676;28;20021;-40
2021/10/06 03:44:21;;;;;;;14.38;3.47;;;;;;;;;;5050413;28;20020;-38
2021/10/06 03:46:48;;;;;;;16.88;3.33;;;;;;;;;;5050594;28;20021;-39
2021/10/06 03:49:15;;;;;;;13.07;3.08;;;;;;;;;;5049840;28;20009;-39
2021/10/06 03:51:41;;;;;;;15.57;3.58;;;;;;;;;;5050361;28;20032;-37
2021/10/06 03:54:09;;;;;;;15.15;3.47;;;;;;;;;;5051099;28;20079;-37
2021/10/06 03:56:36;;;;;;;23.70;3.28;;;;;;;;;;5050139;28;20029;-37
2021/10/06 03:59:03;;;;;;;16.50;2.90;;;;;;;;;;5050631;28;20025;-37
2021/10/06 04:01:31;;;;;;;14.52;2.97;;;;;;;;;;5050499;28;20415;-37
2021/10/06 04:03:58;;;;;;;14.18;3.10;;;;;;;;;;5050836;28;20066;-38
2021/10/06 04:06:25;;;;;;;16.38;3.13;;;;;;;;;;5049967;28;20037;-38
2021/10/06 04:08:52;;;;;;;14.20;3.10;;;;;;;;;;5032789;28;20372;-37
2021/10/06 04:11:19;;;;;;;19.48;3.42;;;;;;;;;;5050162;28;20040;-39
2021/10/06 04:13:46;;;;;;;13.38;3.25;;;;;;;;;;5050953;28;20472;-39
2021/10/06 04:16:13;;;;;;;13.85;2.67;;;;;;;;;;5050800;28;20411;-37
2021/10/06 04:18:40;;;;;;;13.35;2.78;;;;;;;;;;5054573;28;20017;-37
2021/10/06 04:21:07;;;;;;;10.13;2.78;;;;;;;;;;5053842;28;20017;-38
2021/10/06 04:23:34;;;;;;;17.92;3.03;;;;;;;;;;5054784;28;20025;-38
2021/10/06 04:26:01;;;;;;;9.45;2.97;;;;;;;;;;5054101;28;20104;-38
2021/10/06 04:28:28;;;;;;;14.10;2.60;;;;;;;;;;5053643;28;20025;-37
2021/10/06 04:30:55;;;;;;;15.02;2.58;;;;;;;;;;5053978;28;20489;-38
2021/10/06 04:33:22;;;;;;;13.07;2.40;;;;;;;;;;5053943;28;20032;-40
2021/10/06 04:35:49;;;;;;;11.70;2.50;;;;;;;;;;5054102;28;20031;-38
2021/10/06 04:38:16;;;;;;;9.38;2.28;;;;;;;;;;5053367;28;20028;-37
2021/10/06 04:40:43;;;;;;;13.75;2.72;;;;;;;;;;5054238;28;20013;-37
2021/10/06 04:43:11;;;;;;;14.07;2.30;;;;;;;;;;5053640;28;20052;-37
2021/10/06 04:45:39;;;;;;;10.48;2.30;;;;;;;;;;5053934;28;20039;-38
2021/10/06 04:48:06;;;;;;;12.02;2.28;;;;;;;;;;5053821;28;20036;-37
2021/10/06 04:50:33;;;;;;;8.52;2.58;;;;;;;;;;5053316;28;20033;-37
2021/10/06 04:53:00;;;;;;;9.45;2.30;;;;;;;;;;5053680;28;20032;-39
2021/10/06 04:55:27;;;;;;;8.55;1.83;;;;;;;;;;5053680;28;20098;-38
2021/10/06 04:57:54;;;;;;;10.50;2.03;;;;;;;;;;5053250;28;20053;-38
2021/10/06 05:00:21;;;;;;;10.98;2.13;;;;;;;;;;5053525;28;20056;-38
2021/10/06 05:02:49;;;;;;;11.32;1.98;;;;;;;;;;5053483;28;20481;-41
2021/10/06 05:05:15;;;;;;;11.23;2.38;;;;;;;;;;5053338;28;20040;-38
2021/10/06 05:07:42;;;;;;;7.30;1.90;;;;;;;;;;5053608;28;20009;-38
2021/10/06 05:10:10;;;;;;;7.25;1.90;;;;;;;;;;5053121;28;20028;-37
2021/10/06 05:12:37;;;;;;;14.35;2.58;;;;;;;;;;5035542;28;20385;-37
2021/10/06 05:15:04;;;;;;;7.20;2.03;;;;;;;;;;5052914;28;20040;-37
2021/10/06 05:17:32;;;;;;;6.93;2.00;;;;;;;;;;5053753;28;20059;-39
2021/10/06 05:19:59;;;;;;;10.27;2.20;;;;;;;;;;5052899;28;20020;-39
2021/10/06 05:22:25;;;;;;;9.95;1.85;;;;;;;;;;5053532;28;20499;-37
2021/10/06 05:24:52;;;;;;;10.65;2.28;;;;;;;;;;5052683;28;20044;-39
2021/10/06 05:27:19;;;;;;;7.43;2.00;;;;;;;;;;5053184;28;20021;-39
2021/10/06 05:29:46;;;;;;;9.93;2.30;;;;;;;;;;5052295;28;20033;-38
2021/10/06 05:32:13;;;;;;;7.53;1.88;;;;;;;;;;5053311;28;20017;-37
2021/10/06 05:34:40;;;;;;;11.07;1.95;;;;;;;;;;5052587;28;20484;-40
2021/10/06 05:37:07;;;;;;;7.93;2.15;;;;;;;;;;5053207;28;20052;-37
2021/10/06 05:39:34;;;;;;;11.45;1.85;;;;;;;;;;5052282;28;20052;-37
2021/10/06 05:42:01;;;;;;;8.57;2.17;;;;;;;;;;5052760;28;20522;-38
2021/10/06 05:44:29;;;;;;;4.65;1.48;;;;;;;;;;5052445;28;20029;-38
2021/10/06 05:46:55;;;;;;;5.07;1.48;;;;;;;;;;5053144;28;20014;-37
2021/10/06 05:49:23;;;;;;;5.22;1.65;;;;;;;;;;5052868;28;20443;-38
2021/10/06 05:51:50;;;;;;;6.20;1.45;;;;;;;;;;5052347;28;20029;-38
2021/10/06 05:54:17;;;;;;;6.47;1.50;;;;;;;;;;5052883;28;20032;-38
2021/10/06 05:56:43;;;;;;;6.95;1.55;;;;;;;;;;5052049;28;20028;-38
2021/10/06 05:59:10;;;;;;;7.63;1.55;;;;;;;;;;5052633;28;20024;-38
2021/10/06 06:01:38;;;;;;;12.48;1.75;;;;;;;;;;5052164;28;20100;-37
2021/10/06 06:04:05;;;;;;;6.85;1.63;;;;;;;;;;5034626;28;20700;-38
2021/10/06 06:06:32;;;;;;;6.93;1.73;;;;;;;;;;5051906;28;20029;-37
2021/10/06 06:08:59;;;;;;;8.43;1.63;;;;;;;;;;5052920;28;20457;-39
2021/10/06 06:11:26;;;;;;;6.03;1.42;;;;;;;;;;5051585;28;20138;-38
2021/10/06 06:13:54;;;;;;;6.70;1.60;;;;;;;;;;5052498;28;20020;-38
2021/10/06 06:16:21;;;;;;;3.67;1.48;;;;;;;;;;5051892;28;20072;-38
2021/10/06 06:18:48;;;;;;;6.53;1.40;;;;;;;;;;5052768;28;20025;-38
2021/10/06 06:21:15;;;;;;;4.05;1.17;;;;;;;;;;5052138;28;20021;-39
2021/10/06 06:23:42;;;;;;;11.73;2.30;;;;;;;;;;5052028;28;20150;-39
2021/10/06 06:26:09;;;;;;;5.65;1.23;;;;;;;;;;5052186;28;20075;-39
2021/10/06 06:28:40;;;;;;;6.05;1.63;;;;;;;;;;5051506;28;20394;-40
2021/10/06 06:31:10;;;;;;;7.30;1.27;;;;;;;;;;5051387;28;20141;-39
2021/10/06 06:33:37;;;;;;;6.15;1.65;;;;;;;;;;5051830;28;20499;-39
2021/10/06 06:36:05;;;;;;;5.22;1.30;;;;;;;;;;5052014;28;20039;-38
2021/10/06 06:38:32;;;;;;;5.40;1.65;;;;;;;;;;5051293;28;20100;-38
2021/10/06 06:40:59;;;;;;;6.07;1.67;;;;;;;;;;5033479;28;20481;-39
2021/10/06 06:43:26;;;;;;;4.53;1.25;;;;;;;;;;5051253;28;20540;-38
2021/10/06 06:45:53;;;;;;;8.23;1.40;;;;;;;;;;5051457;28;20115;-39
2021/10/06 06:48:20;;;;;;;5.07;1.42;;;;;;;;;;5051286;28;20062;-38
2021/10/06 06:50:54;;;;;;;6.32;1.30;;;;;;;;;;5051253;28;20036;-38
2021/10/06 06:53:28;;;;;;;2.95;1.10;;;;;;;;;;5050926;28;20025;-39
2021/10/06 06:55:56;;;;;;;4.97;1.10;;;;;;;;;;5052061;28;20028;-37
2021/10/06 06:58:23;;;;;;;3.47;1.20;;;;;;;;;;5033350;28;20051;-41
2021/10/06 07:00:50;;;;;;;6.43;1.20;;;;;;;;;;5050990;28;20381;-39
2021/10/06 07:03:18;;;;;;;5.18;1.25;;;;;;;;;;5033263;28;20136;-37
2021/10/06 07:05:45;;;;;;;3.90;1.08;;;;;;;;;;5051454;28;20503;-38
2021/10/06 07:08:12;;;;;;;5.55;1.80;;;;;;;;;;5051137;28;20021;-38
2021/10/06 07:10:41;;;;;;;4.28;1.23;;;;;;;;;;5051595;28;20583;-40
2021/10/06 07:13:08;;;;;;;5.43;1.33;;;;;;;;;;5051430;28;20032;-41
2021/10/06 07:15:36;;;;;;;4.75;1.48;;;;;;;;;;5050963;28;20051;-39
2021/10/06 07:18:03;;;;;;;3.60;1.00;;;;;;;;;;5051420;28;20070;-40
2021/10/06 07:20:30;;;;;;;5.35;1.38;;;;;;;;;;5050697;28;20025;-38
2021/10/06 07:22:57;;;;;;;4.85;1.30;;;;;;;;;;5051477;28;20032;-40
2021/10/06 07:25:24;;;;;;;3.53;1.10;;;;;;;;;;5050703;28;20047;-40
2021/10/06 07:27:52;;;;;;;3.95;1.10;;;;;;;;;;5050881;28;20291;-38
2021/10/06 07:30:19;;;;;;;3.17;1.33;;;;;;;;;;5050483;28;20091;-38
2021/10/06 07:32:46;;;;;;;4.97;1.60;;;;;;;;;;5051207;28;20017;-39
2021/10/06 07:35:13;;;;;;;4.63;1.23;;;;;;;;;;5050836;28;20100;-41
2021/10/06 07:37:40;;;;;;;4.05;1.13;;;;;;;;;;5051432;28;20024;-39
2021/10/06 07:40:08;;;;;;;5.30;1.17;;;;;;;;;;5049578;28;20021;-41
2021/10/06 07:42:35;;;;;;;3.08;1.25;;;;;;;;;;5050705;28;20025;-39
2021/10/06 07:45:02;;;;;;;3.53;0.90;;;;;;;;;;5050400;28;20048;-39
2021/10/06 07:47:29;;;;;;;5.70;1.50;;;;;;;;;;5051048;28;20029;-38
2021/10/06 07:49:56;;;;;;;3.67;1.15;;;;;;;;;;5050627;28;20571;-38
2021/10/06 07:52:23;;;;;;;4.30;1.10;;;;;;;;;;5053173;28;20021;-39
2021/10/06 07:54:50;;;;;;;5.68;1.25;;;;;;;;;;5055194;28;20045;-39
2021/10/06 07:57:17;;;;;;;3.78;1.20;;;;;;;;;;5054584;28;20027;-38
2021/10/06 07:59:44;;;;;;;4.18;1.13;;;;;;;;;;5055302;28;20029;-38
2021/10/06 08:02:11;;;;;;;3.50;1.25;;;;;;;;;;5054014;28;20024;-40
2021/10/06 08:04:38;;;;;;;2.92;1.02;;;;;;;;;;5054756;28;20079;-38
2021/10/06 08:07:05;;;;;;;3.20;1.20;;;;;;;;;;5054412;28;20021;-37
2021/10/06 08:09:33;;;;;;;3.78;0.90;;;;;;;;;;5054939;28;20056;-40
2021/10/06 08:12:00;;;;;;;2.75;1.00;;;;;;;;;;5053850;28;20032;-38
2021/10/06 08:14:27;;;;;;;3.70;0.90;;;;;;;;;;5054861;28;20021;-38
2021/10/06 08:16:54;;;;;;;4.00;1.10;;;;;;;;;;5054247;28;20029;-39
2021/10/06 08:19:21;;;;;;;4.57;1.10;;;;;;;;;;5054750;28;20440;-38
2021/10/06 08:21:48;;;;;;;4.70;1.00;;;;;;;;;;5054347;28;20025;-37
2021/10/06 08:24:15;;;;;;;4.03;0.90;;;;;;;;;;5054051;28;20028;-38
2021/10/06 08:26:42;;;;;;;3.10;1.10;;;;;;;;;;5054021;28;20096;-38
2021/10/06 08:29:09;;;;;;;4.80;1.00;;;;;;;;;;5054682;28;20024;-38
2021/10/06 08:31:36;;;;;;;3.50;0.90;;;;;;;;;;5053906;28;20102;-38
2021/10/06 08:34:03;;;;;;;3.78;1.30;;;;;;;;;;5054274;28;20024;-40
2021/10/06 08:36:31;;;;;;;2.45;0.98;;;;;;;;;;5036916;28;20384;-38
2021/10/06 08:38:59;;;;;;;3.38;1.08;;;;;;;;;;5053669;28;20036;-38
2021/10/06 08:41:26;;;;;;;2.53;0.93;;;;;;;;;;5053968;28;20036;-38
2021/10/06 08:43:53;;;;;;;4.85;1.08;;;;;;;;;;5053646;28;20092;-40
2021/10/06 08:46:23;;;;;;;3.50;1.10;;;;;;;;;;5053870;28;20101;-38
2021/10/06 08:48:56;;;;;;;3.63;1.05;;;;;;;;;;5054094;28;20427;-38
2021/10/06 08:51:24;;;;;;;3.58;0.90;;;;;;;;;;5053969;28;20036;-38
2021/10/06 08:53:51;;;;;;;2.13;0.80;;;;;;;;;;5053132;28;20021;-39
2021/10/06 08:56:21;;;;;;;3.17;1.00;;;;;;;;;;5053537;28;20029;-40
2021/10/06 08:58:48;;;;;;;2.47;0.80;;;;;;;;;;5053774;28;20029;-38
2021/10/06 09:01:26;;;;;;;2.78;1.02;;;;;;;;;;5054065;28;20029;-40
2021/10/06 09:04:00;;;;;;;4.25;1.10;;;;;;;;;;5052885;28;20031;-39
2021/10/06 09:06:37;;;;;;;3.53;1.00;;;;;;;;;;5053477;28;20017;-38
2021/10/06 09:09:13;;;;;;;3.03;0.98;;;;;;;;;;5053513;28;20025;-39
2021/10/06 09:11:40;;;;;;;4.57;0.90;;;;;;;;;;5053927;28;20504;-38
2021/10/06 09:14:08;;;;;;;3.42;1.27;;;;;;;;;;5053214;28;20025;-38
2021/10/06 09:16:37;;;;;;;3.50;1.13;;;;;;;;;;5053513;28;20469;-39
2021/10/06 09:19:05;;;;;;;3.03;1.13;;;;;;;;;;5035237;28;20115;-39
2021/10/06 09:21:36;;;;;;;4.70;1.08;;;;;;;;;;5053433;28;20029;-38
2021/10/06 09:24:05;;;;;;;4.82;1.08;;;;;;;;;;5052980;28;20043;-38
2021/10/06 09:26:32;;;;;;;2.80;1.00;;;;;;;;;;5053034;28;20108;-40
2021/10/06 09:28:59;;;;;;;4.63;0.80;;;;;;;;;;5052803;28;20110;-40
2021/10/06 09:31:27;;;;;;;4.13;1.17;;;;;;;;;;5052024;28;20049;-40
2021/10/06 09:33:57;;;;;;;3.08;1.20;;;;;;;;;;5052494;28;20021;-40
2021/10/06 09:36:31;;;;;;;2.55;1.00;;;;;;;;;;5052395;28;20419;-39
2021/10/06 09:38:58;;;;;;;3.67;0.93;;;;;;;;;;5053078;28;20937;-38
2021/10/06 09:41:26;;;;;;;3.65;0.90;;;;;;;;;;5049147;28;20635;-39
2021/10/06 09:44:07;;;;;;;15.15;1.40;;;;;;;;;;5045539;28;20013;-40
2021/10/06 09:46:55;;;;;;;8.18;1.30;;;;;;;;;;5035211;28;20036;-44
2021/10/06 09:49:30;;;;;;;6.78;1.35;;;;;;;;;;5031248;28;20040;-41
2021/10/06 09:51:57;;;;;;;8.90;1.20;;;;;;;;;;5050352;28;20090;-38
2021/10/06 09:54:24;;;;;;;7.22;1.15;;;;;;;;;;5051278;28;20511;-39
2021/10/06 09:56:51;;;;;;;8.23;1.20;;;;;;;;;;5033176;28;20027;-39
2021/10/06 09:59:19;;;;;;;4.28;1.15;;;;;;;;;;5048629;28;20033;-40
2021/10/06 10:01:47;;;;;;;7.57;1.33;;;;;;;;;;5051052;28;20044;-41
2021/10/06 10:04:14;;;;;;;5.95;1.40;;;;;;;;;;5050476;28;20032;-39
2021/10/06 10:06:41;;;;;;;4.22;1.13;;;;;;;;;;5052225;28;20059;-40
2021/10/06 10:09:10;;;;;;;9.48;1.48;;;;;;;;;;5051660;28;20017;-43
2021/10/06 10:11:38;;;;;;;4.63;1.30;;;;;;;;;;5051284;28;20037;-42
2021/10/06 10:14:06;;;;;;;11.70;1.40;;;;;;;;;;5049664;28;20021;-43
2021/10/06 10:16:33;;;;;;;7.05;1.30;;;;;;;;;;5056913;28;20029;-39
2021/10/06 10:19:05;;;;;;;3.17;1.17;;;;;;;;;;5070862;28;20375;-43
2021/10/06 10:21:32;;;;;;;2.75;1.05;;;;;;;;;;5071331;28;20028;-39
2021/10/06 10:24:10;;;;;;;9.18;1.48;;;;;;;;;;5071480;28;20025;-39
2021/10/06 10:26:37;;;;;;;10.05;1.60;;;;;;;;;;5070792;28;20039;-38
2021/10/06 10:29:24;;;;;;;8.00;1.23;;;;;;;;;;5071614;28;20024;-38
2021/10/06 10:32:04;;;;;;;11.18;1.50;;;;;;;;;;5071267;28;20115;-39
2021/10/06 10:34:49;;;;;;;4.93;1.05;;;;;;;;;;5071235;28;20024;-39
2021/10/06 10:37:16;;;;;;;9.10;1.38;;;;;;;;;;5070558;28;20020;-39
2021/10/06 10:39:45;;;;;;;9.38;1.83;;;;;;;;;;5060199;28;20017;-37
2021/10/06 10:42:13;;;;;;;10.32;1.60;;;;;;;;;;5051576;28;20058;-38
2021/10/06 10:44:41;;;;;;;10.23;1.88;;;;;;;;;;5051371;28;20380;-39
2021/10/06 10:47:08;;;;;;;15.45;1.80;;;;;;;;;;5050525;28;20095;-40
2021/10/06 10:49:52;;;;;;;4.43;1.10;;;;;;;;;;5050895;28;20020;-39
2021/10/06 10:52:19;;;;;;;8.55;1.60;;;;;;;;;;5051470;28;20488;-39
2021/10/06 10:54:47;;;;;;;6.60;1.65;;;;;;;;;;5050940;28;20504;-39
2021/10/06 10:57:22;;;;;;;8.23;1.42;;;;;;;;;;5050102;28;20040;-40
2021/10/06 10:59:50;;;;;;;9.98;1.38;;;;;;;;;;5050555;28;20053;-40
2021/10/06 11:02:22;;;;;;;9.25;1.83;;;;;;;;;;5051315;28;20595;-40
2021/10/06 11:05:08;;;;;;;9.32;1.52;;;;;;;;;;5050733;28;20020;-38
2021/10/06 11:07:49;;;;;;;7.38;1.60;;;;;;;;;;5051209;28;20503;-40
2021/10/06 11:10:17;;;;;;;10.65;1.95;;;;;;;;;;5032112;28;20074;-39
2021/10/06 11:12:53;;;;;;;6.75;1.40;;;;;;;;;;5050047;28;20021;-38
2021/10/06 11:15:20;;;;;;;10.18;1.75;;;;;;;;;;5050043;28;20411;-40
2021/10/06 11:18:06;;;;;;;7.43;1.60;;;;;;;;;;5050624;28;20021;-38
2021/10/06 11:20:43;;;;;;;8.45;1.55;;;;;;;;;;5049435;28;20017;-39
2021/10/06 11:23:28;;;;;;;10.18;2.03;;;;;;;;;;5050712;28;20021;-41
2021/10/06 11:25:55;;;;;;;9.57;1.88;;;;;;;;;;5050347;28;20508;-38
2021/10/06 11:28:23;;;;;;;9.43;1.65;;;;;;;;;;5050251;28;20025;-38
2021/10/06 11:30:56;;;;;;;9.73;1.80;;;;;;;;;;5049114;28;20049;-38
2021/10/06 11:33:27;;;;;;;11.20;1.70;;;;;;;;;;5050279;28;20018;-37
2021/10/06 11:36:14;;;;;;;10.93;1.60;;;;;;;;;;5050378;28;20432;-39
2021/10/06 11:38:43;;;;;;;13.93;1.98;;;;;;;;;;5050327;28;20079;-38
2021/10/06 11:41:10;;;;;;;16.90;1.83;;;;;;;;;;5049241;28;20079;-38
2021/10/06 11:43:38;;;;;;;6.38;1.85;;;;;;;;;;5050429;28;20017;-43
2021/10/06 11:46:05;;;;;;;8.25;1.80;;;;;;;;;;5049815;28;20021;-35
2021/10/06 11:48:32;;;;;;;13.10;1.80;;;;;;;;;;5049877;28;20092;-42
2021/10/06 11:50:59;;;;;;;10.10;1.63;;;;;;;;;;5050396;28;20033;-42
2021/10/06 11:53:43;;;;;;;10.70;2.08;;;;;;;;;;5044765;28;20021;-43
2021/10/06 11:56:10;;;;;;;18.88;2.33;;;;;;;;;;5048947;28;20029;-38
2021/10/06 11:58:40;;;;;;;7.72;1.80;;;;;;;;;;5050210;28;20021;-37
2021/10/06 12:01:11;;;;;;;15.25;1.80;;;;;;;;;;5049855;28;20040;-39
2021/10/06 12:03:41;;;;;;;15.60;2.50;;;;;;;;;;5047756;28;20112;-38
2021/10/06 12:06:10;;;;;;;15.30;2.22;;;;;;;;;;5050418;28;20029;-41
2021/10/06 12:08:37;;;;;;;14.95;2.28;;;;;;;;;;5049500;28;20017;-41
2021/10/06 12:11:05;;;;;;;15.80;2.30;;;;;;;;;;5049939;28;20148;-38
2021/10/06 12:13:32;;;;;;;10.38;2.00;;;;;;;;;;5048426;28;20025;-39
2021/10/06 12:15:59;;;;;;;8.82;2.13;;;;;;;;;;5049565;28;20021;-46
2021/10/06 12:18:26;;;;;;;10.73;2.50;;;;;;;;;;5050393;28;20353;-40
2021/10/06 12:20:53;;;;;;;11.75;2.15;;;;;;;;;;5049898;28;20056;-42
2021/10/06 12:23:24;;;;;;;10.30;1.92;;;;;;;;;;5050137;28;20029;-37
2021/10/06 12:25:58;;;;;;;12.73;2.25;;;;;;;;;;5049671;28;20029;-40
2021/10/06 12:28:25;;;;;;;16.52;2.30;;;;;;;;;;5050562;28;20104;-37
2021/10/06 12:30:53;;;;;;;7.43;1.65;;;;;;;;;;5048812;28;20619;-46
2021/10/06 12:33:20;;;;;;;9.00;2.00;;;;;;;;;;5048591;28;20032;-38
2021/10/06 12:35:49;;;;;;;10.35;2.72;;;;;;;;;;5045800;28;20036;-39
2021/10/06 12:38:16;;;;;;;14.20;2.30;;;;;;;;;;5051622;28;20017;-38
2021/10/06 12:40:53;;;;;;;12.95;2.55;;;;;;;;;;5052814;28;20032;-38
2021/10/06 12:43:28;;;;;;;11.48;2.00;;;;;;;;;;5054077;28;20070;-40
2021/10/06 12:45:59;;;;;;;11.48;2.08;;;;;;;;;;5052182;28;20079;-40
2021/10/06 12:48:44;;;;;;;8.33;2.13;;;;;;;;;;5052883;28;20093;-41
2021/10/06 12:51:31;;;;;;;13.73;1.88;;;;;;;;;;5055459;28;20044;-39
2021/10/06 12:54:02;;;;;;;11.73;2.42;;;;;;;;;;5073466;28;20029;-40
2021/10/06 12:56:33;;;;;;;7.05;1.60;;;;;;;;;;5071931;28;20021;-40
2021/10/06 12:59:10;;;;;;;12.88;1.88;;;;;;;;;;5053519;28;20025;-41
2021/10/06 13:01:38;;;;;;;8.73;1.95;;;;;;;;;;5052884;28;20033;-39
2021/10/06 13:04:07;;;;;;;13.32;1.95;;;;;;;;;;5034604;28;20385;-41
2021/10/06 13:06:35;;;;;;;16.38;2.45;;;;;;;;;;5052920;28;20049;-40
2021/10/06 13:09:04;;;;;;;11.50;2.35;;;;;;;;;;5051549;28;20021;-40
2021/10/06 13:11:32;;;;;;;12.48;2.33;;;;;;;;;;5033869;28;20033;-40
2021/10/06 13:13:59;;;;;;;12.70;2.33;;;;;;;;;;5052575;28;20112;-39
2021/10/06 13:16:26;;;;;;;17.95;2.63;;;;;;;;;;5034057;28;20017;-39
2021/10/06 13:18:54;;;;;;;15.00;2.08;;;;;;;;;;5051606;28;20469;-41
2021/10/06 13:21:24;;;;;;;17.15;2.40;;;;;;;;;;5051418;28;20021;-41
2021/10/06 13:23:51;;;;;;;16.65;2.20;;;;;;;;;;5052333;28;20021;-40
2021/10/06 13:26:18;;;;;;;8.55;1.77;;;;;;;;;;5052309;28;20480;-44
2021/10/06 13:28:45;;;;;;;14.15;2.05;;;;;;;;;;5051713;28;20032;-39
2021/10/06 13:31:14;;;;;;;19.05;2.80;;;;;;;;;;5050680;28;20067;-40
2021/10/06 13:33:41;;;;;;;12.00;2.63;;;;;;;;;;5052276;28;20501;-41
2021/10/06 13:36:08;;;;;;;14.40;2.30;;;;;;;;;;5052144;28;20099;-40
2021/10/06 13:38:36;;;;;;;16.52;2.28;;;;;;;;;;5050974;28;20017;-41
2021/10/06 13:41:04;;;;;;;15.45;2.65;;;;;;;;;;5049718;28;20094;-45
2021/10/06 13:43:32;;;;;;;12.95;1.85;;;;;;;;;;5051394;28;20074;-41
2021/10/06 13:45:59;;;;;;;14.32;2.08;;;;;;;;;;5051913;28;20031;-42
2021/10/06 13:48:26;;;;;;;14.35;2.13;;;;;;;;;;5050543;28;20021;-41
2021/10/06 13:50:53;;;;;;;21.15;2.25;;;;;;;;;;5050389;28;20029;-40
2021/10/06 13:53:21;;;;;;;17.20;2.53;;;;;;;;;;5051848;28;20021;-40
2021/10/06 13:55:48;;;;;;;17.52;2.15;;;;;;;;;;5052108;28;20023;-39
2021/10/06 13:58:15;;;;;;;19.92;2.35;;;;;;;;;;5051552;28;20103;-42
2021/10/06 14:00:43;;;;;;;23.13;2.22;;;;;;;;;;5051344;28;20035;-40
2021/10/06 14:03:10;;;;;;;18.45;2.72;;;;;;;;;;5049675;28;20028;-51
2021/10/06 14:05:37;;;;;;;15.35;2.08;;;;;;;;;;5051233;28;20029;-47
2021/10/06 14:08:04;;;;;;;22.27;3.05;;;;;;;;;;5051650;28;20021;-47
2021/10/06 14:10:31;;;;;;;23.13;2.47;;;;;;;;;;5051514;28;20044;-47
2021/10/06 14:12:58;;;;;;;12.45;2.25;;;;;;;;;;5033117;28;20469;-45
2021/10/06 14:15:25;;;;;;;13.48;2.53;;;;;;;;;;5066336;28;20078;-44
2021/10/06 14:17:56;;;;;;;14.65;2.63;;;;;;;;;;5072148;28;20503;-46
2021/10/06 14:20:23;;;;;;;20.60;2.65;;;;;;;;;;5070542;28;20029;-48
2021/10/06 14:22:51;;;;;;;16.95;2.05;;;;;;;;;;5069693;28;20055;-55
2021/10/06 14:25:18;;;;;;;11.70;2.15;;;;;;;;;;5052765;28;20032;-42
2021/10/06 14:27:46;;;;;;;18.75;2.28;;;;;;;;;;5041622;28;20041;-45
2021/10/06 14:30:16;;;;;;;8.90;2.10;;;;;;;;;;5029050;28;20045;-45
2021/10/06 14:32:44;;;;;;;13.55;2.15;;;;;;;;;;5030514;28;20029;-47
2021/10/06 14:35:12;;;;;;;12.93;2.17;;;;;;;;;;5045590;28;20456;-43
2021/10/06 14:37:39;;;;;;;11.82;2.05;;;;;;;;;;5051288;28;20025;-44
2021/10/06 14:40:06;;;;;;;18.45;2.75;;;;;;;;;;5050682;28;20052;-54
2021/10/06 14:42:34;;;;;;;10.48;1.85;;;;;;;;;;5049977;28;20033;-41